createdAt,value
2023-02-22T00:01:08.231Z,6.00
2023-02-22T00:03:36.193Z,5.67
2023-02-22T00:06:06.291Z,5.53
2023-02-22T00:08:37.394Z,5.30
2023-02-22T00:11:09.035Z,5.43
2023-02-22T00:13:38.528Z,5.10
2023-02-22T00:16:07.142Z,5.37
2023-02-22T00:18:35.305Z,5.43
2023-02-22T00:21:10.579Z,5.33
2023-02-22T00:23:46.501Z,5.57
2023-02-22T00:26:21.072Z,5.67
2023-02-22T00:28:53.667Z,5.30
2023-02-22T00:31:22.215Z,5.30
2023-02-22T00:33:50.178Z,4.87
2023-02-22T00:36:17.990Z,4.67
2023-02-22T00:38:45.875Z,5.50
2023-02-22T00:41:13.797Z,4.80
2023-02-22T00:43:41.684Z,4.70
2023-02-22T00:46:09.542Z,4.80
2023-02-22T00:48:37.528Z,4.63
2023-02-22T00:51:05.875Z,4.37
2023-02-22T00:53:33.984Z,4.70
2023-02-22T00:56:01.839Z,4.57
2023-02-22T00:58:29.678Z,4.47
2023-02-22T01:00:57.583Z,4.60
2023-02-22T01:03:25.492Z,4.30
2023-02-22T01:05:53.319Z,4.80
2023-02-22T01:08:21.163Z,4.33
2023-02-22T01:10:52.510Z,4.60
2023-02-22T01:13:20.412Z,5.10
2023-02-22T01:15:48.238Z,3.63
2023-02-22T01:18:17.254Z,4.10
2023-02-22T01:20:47.940Z,4.10
2023-02-22T01:23:17.248Z,4.47
2023-02-22T01:25:45.212Z,4.67
2023-02-22T01:28:13.783Z,4.23
2023-02-22T01:30:41.733Z,4.03
2023-02-22T01:33:10.398Z,3.73
2023-02-22T01:35:42.983Z,4.97
2023-02-22T01:38:10.973Z,4.83
2023-02-22T01:40:43.665Z,4.20
2023-02-22T01:43:24.092Z,4.30
2023-02-22T01:46:20.873Z,5.00
2023-02-22T01:49:10.259Z,4.73
2023-02-22T01:51:46.234Z,4.50
2023-02-22T01:54:31.172Z,4.30
2023-02-22T01:57:20.361Z,3.70
2023-02-22T01:59:57.058Z,3.83
2023-02-22T02:02:26.512Z,3.20
2023-02-22T02:04:56.675Z,2.87
2023-02-22T02:07:25.377Z,4.10
2023-02-22T02:10:04.479Z,3.87
2023-02-22T02:12:36.151Z,3.17
2023-02-22T02:15:25.230Z,4.07
2023-02-22T02:17:57.108Z,3.70
2023-02-22T02:20:46.905Z,3.87
2023-02-22T02:24:20.006Z,5.07
2023-02-22T02:27:41.048Z,4.53
2023-02-22T02:31:02.400Z,4.00
2023-02-22T02:33:39.763Z,4.10
2023-02-22T02:36:44.492Z,4.03
2023-02-22T02:39:50.242Z,2.93
2023-02-22T02:42:26.189Z,3.63
2023-02-22T02:45:19.042Z,3.80
2023-02-22T02:47:58.643Z,3.67
2023-02-22T02:50:38.992Z,3.27
2023-02-22T02:53:09.990Z,3.03
2023-02-22T02:55:38.407Z,3.07
2023-02-22T02:58:08.665Z,3.57
2023-02-22T03:00:41.088Z,2.90
2023-02-22T03:03:37.376Z,3.30
2023-02-22T03:06:13.812Z,3.83
2023-02-22T03:09:35.026Z,3.53
2023-02-22T03:12:45.705Z,3.90
2023-02-22T03:15:44.847Z,4.00
2023-02-22T03:18:32.188Z,4.00
2023-02-22T03:21:23.554Z,3.70
2023-02-22T03:24:14.661Z,3.50
2023-02-22T03:27:03.905Z,3.33
2023-02-22T03:29:35.473Z,3.50
2023-02-22T03:32:16.440Z,3.27
2023-02-22T03:35:08.719Z,2.80
2023-02-22T03:37:46.611Z,3.60
2023-02-22T03:40:29.773Z,3.47
2023-02-22T03:43:43.005Z,3.50
2023-02-22T03:46:13.051Z,4.13
2023-02-22T03:49:14.264Z,3.67
2023-02-22T03:51:42.561Z,3.70
2023-02-22T03:54:16.218Z,4.73
2023-02-22T03:57:00.595Z,3.57
2023-02-22T03:59:29.346Z,3.50
2023-02-22T04:01:58.088Z,2.90
2023-02-22T04:04:26.823Z,4.43
2023-02-22T04:06:54.740Z,3.47
2023-02-22T04:09:22.615Z,3.13
2023-02-22T04:11:50.673Z,2.83
2023-02-22T04:14:18.497Z,3.43
2023-02-22T04:16:46.609Z,3.70
2023-02-22T04:19:14.652Z,2.97
2023-02-22T04:21:45.276Z,3.00
2023-02-22T04:24:13.990Z,3.83
2023-02-22T04:26:41.946Z,4.13
2023-02-22T04:29:10.244Z,3.87
2023-02-22T04:31:38.649Z,3.63
2023-02-22T04:34:06.523Z,3.37
2023-02-22T04:36:34.399Z,4.30
2023-02-22T04:39:02.575Z,4.27
2023-02-22T04:41:31.470Z,3.57
2023-02-22T04:43:59.396Z,3.93
2023-02-22T04:46:27.352Z,3.57
2023-02-22T04:48:55.293Z,4.10
2023-02-22T04:51:23.875Z,4.43
2023-02-22T04:53:52.013Z,5.57
2023-02-22T04:56:20.587Z,5.57
2023-02-22T04:58:48.650Z,4.57
2023-02-22T05:01:17.473Z,4.23
2023-02-22T05:03:45.581Z,4.53
2023-02-22T05:06:13.570Z,4.53
2023-02-22T05:08:42.982Z,3.80
2023-02-22T05:11:10.924Z,4.70
2023-02-22T05:13:38.780Z,3.60
2023-02-22T05:16:07.084Z,3.80
2023-02-22T05:18:35.064Z,3.90
2023-02-22T05:21:02.980Z,4.53
2023-02-22T05:23:30.916Z,3.90
2023-02-22T05:25:59.343Z,4.20
2023-02-22T05:28:27.867Z,3.70
2023-02-22T05:30:55.775Z,4.07
2023-02-22T05:33:23.847Z,4.20
2023-02-22T05:35:55.983Z,3.60
2023-02-22T05:38:23.929Z,4.33
2023-02-22T05:40:51.959Z,3.80
2023-02-22T05:43:20.160Z,4.93
2023-02-22T05:45:48.283Z,3.20
2023-02-22T05:48:16.182Z,3.20
2023-02-22T05:50:46.529Z,3.63
2023-02-22T05:53:14.429Z,3.47
2023-02-22T05:55:44.024Z,4.37
2023-02-22T05:58:13.053Z,3.77
2023-02-22T06:00:40.970Z,5.40
2023-02-22T06:03:10.791Z,4.80
2023-02-22T06:05:40.001Z,5.50
2023-02-22T06:08:08.824Z,3.50
2023-02-22T06:10:36.846Z,3.90
2023-02-22T06:13:05.965Z,5.13
2023-02-22T06:15:33.830Z,4.10
2023-02-22T06:18:02.586Z,3.50
2023-02-22T06:20:31.343Z,4.07
2023-02-22T06:22:59.516Z,4.20
2023-02-22T06:25:34.203Z,4.23
2023-02-22T06:28:02.717Z,4.10
2023-02-22T06:30:31.452Z,3.67
2023-02-22T06:33:00.269Z,4.27
2023-02-22T06:35:28.370Z,3.57
2023-02-22T06:37:56.264Z,4.20
2023-02-22T06:40:29.487Z,4.43
2023-02-22T06:42:59.939Z,4.20
2023-02-22T06:45:29.402Z,4.63
2023-02-22T06:47:57.564Z,3.47
2023-02-22T06:50:30.461Z,3.57
2023-02-22T06:52:58.971Z,3.70
2023-02-22T06:55:33.496Z,4.07
2023-02-22T06:58:04.825Z,3.53
2023-02-22T07:00:34.064Z,3.93
2023-02-22T07:03:04.069Z,3.90
2023-02-22T07:05:32.061Z,4.33
2023-02-22T07:08:08.052Z,3.90
2023-02-22T07:10:39.663Z,5.03
2023-02-22T07:13:09.280Z,5.23
2023-02-22T07:15:37.274Z,4.50
2023-02-22T07:18:05.650Z,4.50
2023-02-22T07:20:34.194Z,5.37
2023-02-22T07:23:02.986Z,4.40
2023-02-22T07:25:31.185Z,4.63
2023-02-22T07:27:59.606Z,4.80
2023-02-22T07:30:32.261Z,4.90
2023-02-22T07:33:10.148Z,4.87
2023-02-22T07:35:48.364Z,4.83
2023-02-22T07:38:20.363Z,4.53
2023-02-22T07:40:48.269Z,4.93
2023-02-22T07:43:31.072Z,4.90
2023-02-22T07:46:02.882Z,5.13
2023-02-22T07:48:32.503Z,4.87
2023-02-22T07:51:00.468Z,4.60
2023-02-22T07:53:33.486Z,5.00
2023-02-22T07:56:05.615Z,4.33
2023-02-22T07:58:33.642Z,5.47
2023-02-22T08:01:02.174Z,4.67
2023-02-22T08:03:36.596Z,5.20
2023-02-22T08:06:08.040Z,5.10
2023-02-22T08:08:36.013Z,4.50
2023-02-22T08:11:04.272Z,4.60
2023-02-22T08:13:32.816Z,4.97
2023-02-22T08:16:00.834Z,5.50
2023-02-22T08:18:28.865Z,5.27
2023-02-22T08:20:56.895Z,4.80
2023-02-22T08:23:27.012Z,6.00
2023-02-22T08:25:55.884Z,4.60
2023-02-22T08:28:25.414Z,4.60
2023-02-22T08:30:54.005Z,4.50
2023-02-22T08:33:22.664Z,5.03
2023-02-22T08:35:51.724Z,4.17
2023-02-22T08:38:31.281Z,4.80
2023-02-22T08:40:59.298Z,4.90
2023-02-22T08:43:28.502Z,4.70
2023-02-22T08:45:57.765Z,4.00
2023-02-22T08:48:26.331Z,4.40
2023-02-22T08:50:54.932Z,4.23
2023-02-22T08:53:22.965Z,4.33
2023-02-22T08:55:50.966Z,4.20
2023-02-22T08:58:18.851Z,4.10
2023-02-22T09:00:47.281Z,4.10
2023-02-22T09:03:15.787Z,4.40
2023-02-22T09:05:45.083Z,4.07
2023-02-22T09:08:13.619Z,3.67
2023-02-22T09:10:41.717Z,4.27
2023-02-22T09:13:10.023Z,4.00
2023-02-22T09:15:39.836Z,3.60
2023-02-22T09:18:12.365Z,3.67
2023-02-22T09:20:43.414Z,3.63
2023-02-22T09:23:11.547Z,4.67
2023-02-22T09:25:40.795Z,3.33
2023-02-22T09:28:10.103Z,3.40
2023-02-22T09:30:38.877Z,3.43
2023-02-22T09:33:16.253Z,4.37
2023-02-22T09:35:49.817Z,4.07
2023-02-22T09:38:24.646Z,3.77
2023-02-22T09:41:20.328Z,3.73
2023-02-22T09:44:12.241Z,4.00
2023-02-22T09:46:48.378Z,3.67
2023-02-22T09:49:16.068Z,3.57
2023-02-22T09:51:52.617Z,4.33
2023-02-22T09:54:52.758Z,4.60
2023-02-22T09:57:36.964Z,4.77
2023-02-22T10:00:19.000Z,3.67
2023-02-22T10:03:21.488Z,3.93
2023-02-22T10:06:04.653Z,3.50
2023-02-22T10:08:34.534Z,3.93
2023-02-22T10:11:58.331Z,3.80
2023-02-22T10:15:27.450Z,3.57
2023-02-22T10:18:54.994Z,3.50
2023-02-22T10:22:05.038Z,3.57
2023-02-22T10:24:57.932Z,3.50
2023-02-22T10:27:41.309Z,3.00
2023-02-22T10:30:43.843Z,3.83
2023-02-22T10:33:21.439Z,3.77
2023-02-22T10:35:51.459Z,3.77
2023-02-22T10:38:29.615Z,3.63
2023-02-22T10:41:09.945Z,3.87
2023-02-22T10:43:41.512Z,3.83
2023-02-22T10:46:19.006Z,3.90
2023-02-22T10:48:56.719Z,3.23
2023-02-22T10:51:24.726Z,3.30
2023-02-22T10:54:14.458Z,3.70
2023-02-22T10:56:52.512Z,3.70
2023-02-22T10:59:39.236Z,3.13
2023-02-22T11:02:20.147Z,3.23
2023-02-22T11:04:57.223Z,3.13
2023-02-22T11:07:33.215Z,3.87
2023-02-22T11:10:09.277Z,3.00
2023-02-22T11:12:42.294Z,3.27
2023-02-22T11:15:29.839Z,2.70
2023-02-22T11:18:01.267Z,3.80
2023-02-22T11:20:40.188Z,2.93
2023-02-22T11:23:08.300Z,3.37
2023-02-22T11:25:42.670Z,3.43
2023-02-22T11:28:32.735Z,3.40
2023-02-22T11:31:17.567Z,3.80
2023-02-22T11:36:51.144Z,2.70
2023-02-22T11:39:34.535Z,3.23
2023-02-22T11:42:27.254Z,3.40
2023-02-22T11:45:24.729Z,3.70
2023-02-22T11:48:01.253Z,3.57
2023-02-22T11:50:36.724Z,3.20
2023-02-22T11:53:56.195Z,3.23
2023-02-22T11:56:41.851Z,2.70
2023-02-22T12:00:24.140Z,2.90
2023-02-22T12:07:34.774Z,2.70
2023-02-22T12:10:48.434Z,3.40
2023-02-22T12:14:21.053Z,2.87
2023-02-22T12:17:34.924Z,4.77
2023-02-22T12:20:47.896Z,3.30
2023-02-22T12:24:01.613Z,3.00
2023-02-22T12:26:41.507Z,3.13
2023-02-22T12:29:39.215Z,3.10
2023-02-22T12:32:47.484Z,3.57
2023-02-22T12:35:50.218Z,3.07
2023-02-22T12:38:44.239Z,2.93
2023-02-22T12:41:45.305Z,2.97
2023-02-22T12:44:30.395Z,3.27
2023-02-22T12:47:01.374Z,3.97
2023-02-22T12:49:49.585Z,2.63
2023-02-22T12:52:33.969Z,3.40
2023-02-22T12:55:13.964Z,3.43
2023-02-22T12:58:39.791Z,3.00
2023-02-22T13:01:19.912Z,3.70
2023-02-22T13:03:49.310Z,2.80
2023-02-22T13:07:04.452Z,2.90
2023-02-22T13:10:03.962Z,2.77
2023-02-22T13:13:15.118Z,3.10
2023-02-22T13:15:58.029Z,2.80
2023-02-22T13:18:31.428Z,2.47
2023-02-22T13:21:29.758Z,3.07
2023-02-22T13:24:21.355Z,3.40
2023-02-22T13:27:14.873Z,3.67
2023-02-22T13:29:52.054Z,2.73
2023-02-22T13:33:15.021Z,3.13
2023-02-22T13:36:19.353Z,3.30
2023-02-22T13:39:19.480Z,3.70
2023-02-22T13:42:25.276Z,4.53
2023-02-22T13:45:37.221Z,3.17
2023-02-22T13:48:51.146Z,4.50
2023-02-22T13:52:12.236Z,3.10
2023-02-22T13:54:54.720Z,2.97
2023-02-22T13:57:58.706Z,3.10
2023-02-22T14:00:52.123Z,3.40
2023-02-22T14:03:24.137Z,5.27
2023-02-22T14:05:57.145Z,5.10
2023-02-22T14:08:25.450Z,3.83
2023-02-22T14:10:58.052Z,8.57
2023-02-22T14:14:00.865Z,3.30
2023-02-22T14:16:31.663Z,3.40
2023-02-22T14:19:13.727Z,3.90
2023-02-22T14:22:06.799Z,3.67
2023-02-22T14:24:48.033Z,2.93
2023-02-22T14:27:20.136Z,2.90
2023-02-22T14:30:00.585Z,3.33
2023-02-22T14:32:36.348Z,3.07
2023-02-22T14:35:26.535Z,3.10
2023-02-22T14:38:00.894Z,2.80
2023-02-22T14:40:34.510Z,3.00
2023-02-22T14:43:06.229Z,3.20
2023-02-22T14:45:43.468Z,2.80
2023-02-22T14:48:39.726Z,3.33
2023-02-22T14:51:38.607Z,3.23
2023-02-22T14:54:47.108Z,2.73
2023-02-22T14:57:56.796Z,3.33
2023-02-22T15:00:49.880Z,2.50
2023-02-22T15:03:37.410Z,2.80
2023-02-22T15:06:21.982Z,3.00
2023-02-22T15:09:25.722Z,2.87
2023-02-22T15:12:04.023Z,2.60
2023-02-22T15:14:39.013Z,2.30
2023-02-22T15:17:24.688Z,3.10
2023-02-22T15:19:53.336Z,2.70
2023-02-22T15:22:31.584Z,2.90
2023-02-22T15:25:05.338Z,3.03
2023-02-22T15:27:39.897Z,2.47
2023-02-22T15:30:26.864Z,3.00
2023-02-22T15:33:04.172Z,2.63
2023-02-22T15:35:33.685Z,2.40
2023-02-22T15:38:16.035Z,2.40
2023-02-22T15:40:56.266Z,3.03
2023-02-22T15:44:28.013Z,2.60
2023-02-22T15:46:57.013Z,2.73
2023-02-22T15:49:25.955Z,2.53
2023-02-22T15:52:24.394Z,2.17
2023-02-22T15:54:53.451Z,2.07
2023-02-22T15:57:25.474Z,1.90
2023-02-22T15:59:58.992Z,2.53
2023-02-22T16:02:33.918Z,2.07
2023-02-22T16:05:18.424Z,1.83
2023-02-22T16:07:50.896Z,1.90
2023-02-22T16:10:34.986Z,2.00
2023-02-22T16:13:32.048Z,2.07
2023-02-22T16:16:04.940Z,2.00
2023-02-22T16:18:41.458Z,2.00
2023-02-22T16:21:17.545Z,3.47
2023-02-22T16:23:55.979Z,2.13
2023-02-22T16:26:34.895Z,1.93
2023-02-22T16:29:08.968Z,1.80
2023-02-22T16:31:40.286Z,2.20
2023-02-22T16:34:09.052Z,2.40
2023-02-22T16:36:52.196Z,2.50
2023-02-22T16:39:32.577Z,1.97
2023-02-22T16:42:05.386Z,1.87
2023-02-22T16:44:34.616Z,2.20
2023-02-22T16:47:02.734Z,2.00
2023-02-22T16:49:30.676Z,1.90
2023-02-22T16:52:02.537Z,2.30
2023-02-22T16:54:45.135Z,2.20
2023-02-22T16:57:24.149Z,2.40
2023-02-22T16:59:52.881Z,2.03
2023-02-22T17:02:21.792Z,2.20
2023-02-22T17:04:49.792Z,1.90
2023-02-22T17:07:31.437Z,2.07
2023-02-22T17:09:59.696Z,1.80
2023-02-22T17:12:29.813Z,2.00
2023-02-22T17:14:57.816Z,2.00
2023-02-22T17:17:26.417Z,2.03
2023-02-22T17:19:54.984Z,2.10
2023-02-22T17:22:23.508Z,2.23
2023-02-22T17:24:51.396Z,2.60
2023-02-22T17:27:19.446Z,2.40
2023-02-22T17:29:48.423Z,2.47
2023-02-22T17:32:16.466Z,2.30
2023-02-22T17:34:44.316Z,2.40
2023-02-22T17:37:12.286Z,3.23
2023-02-22T17:39:40.402Z,3.67
2023-02-22T17:42:08.320Z,3.10
2023-02-22T17:44:36.538Z,3.77
2023-02-22T17:47:04.459Z,4.33
2023-02-22T17:49:32.333Z,5.33
2023-02-22T17:52:02.670Z,6.13
2023-02-22T17:54:30.555Z,4.50
2023-02-22T17:56:58.390Z,5.47
2023-02-22T17:59:27.273Z,17.00
2023-02-22T18:01:56.710Z,8.70
2023-02-22T18:04:24.600Z,7.70
2023-02-22T18:06:52.618Z,10.10
2023-02-22T18:09:20.545Z,7.30
2023-02-22T18:11:48.461Z,8.33
2023-02-22T18:14:16.349Z,7.20
2023-02-22T18:16:46.720Z,6.93
2023-02-22T18:19:20.431Z,5.87
2023-02-22T18:21:49.916Z,4.83
2023-02-22T18:24:18.433Z,3.30
2023-02-22T18:26:46.307Z,3.13
2023-02-22T18:29:14.168Z,2.37
2023-02-22T18:31:45.197Z,3.53
2023-02-22T18:34:13.141Z,6.70
2023-02-22T18:36:41.038Z,4.37
2023-02-22T18:39:11.695Z,3.30
2023-02-22T18:41:39.930Z,5.70
2023-02-22T18:44:10.383Z,3.67
2023-02-22T18:46:38.359Z,3.30
2023-02-22T18:49:07.380Z,3.37
2023-02-22T18:51:35.728Z,3.33
2023-02-22T18:54:03.722Z,3.40
2023-02-22T18:56:31.805Z,2.90
2023-02-22T18:59:03.949Z,2.80
2023-02-22T19:01:38.507Z,2.60
2023-02-22T19:04:12.530Z,2.60
2023-02-22T19:06:42.965Z,2.63
2023-02-22T19:09:10.762Z,2.40
2023-02-22T19:11:44.539Z,2.33
2023-02-22T19:14:13.797Z,2.33
2023-02-22T19:16:44.808Z,2.90
2023-02-22T19:19:16.785Z,2.23
2023-02-22T19:21:44.590Z,3.07
2023-02-22T19:24:13.152Z,3.17
2023-02-22T19:26:50.163Z,3.53
2023-02-22T19:29:22.040Z,3.83
2023-02-22T19:31:51.922Z,3.43
2023-02-22T19:34:23.807Z,3.47
2023-02-22T19:36:51.770Z,4.13
2023-02-22T19:39:20.886Z,3.40
2023-02-22T19:41:48.833Z,4.63
2023-02-22T19:44:16.682Z,4.43
2023-02-22T19:46:46.201Z,4.37
2023-02-22T19:49:16.033Z,4.27
2023-02-22T19:51:44.146Z,4.90
2023-02-22T19:54:19.440Z,4.63
2023-02-22T19:56:50.978Z,4.30
2023-02-22T19:59:22.901Z,4.53
2023-02-22T20:01:55.037Z,4.63
2023-02-22T20:04:24.232Z,5.07
2023-02-22T20:06:55.187Z,5.90
2023-02-22T20:09:30.220Z,4.57
2023-02-22T20:11:58.151Z,5.00
2023-02-22T20:14:28.349Z,5.07
2023-02-22T20:16:58.479Z,4.57
2023-02-22T20:19:27.704Z,4.63
2023-02-22T20:21:56.576Z,4.77
2023-02-22T20:24:25.210Z,4.67
2023-02-22T20:26:55.780Z,5.03
2023-02-22T20:29:29.563Z,5.33
2023-02-22T20:32:02.958Z,4.73
2023-02-22T20:34:34.865Z,4.47
2023-02-22T20:37:04.795Z,4.33
2023-02-22T20:39:32.900Z,4.13
2023-02-22T20:42:00.841Z,4.77
2023-02-22T20:44:28.804Z,5.97
2023-02-22T20:46:56.747Z,5.20
2023-02-22T20:49:27.261Z,5.57
2023-02-22T20:51:55.110Z,4.83
2023-02-22T20:54:22.961Z,5.07
2023-02-22T20:56:52.905Z,4.97
2023-02-22T20:59:21.746Z,5.67
2023-02-22T21:01:50.252Z,5.90
2023-02-22T21:04:18.781Z,5.50
2023-02-22T21:06:46.625Z,5.60
2023-02-22T21:09:19.114Z,5.80
2023-02-22T21:11:47.689Z,5.40
2023-02-22T21:14:19.074Z,5.87
2023-02-22T21:16:50.977Z,6.60
2023-02-22T21:19:26.188Z,5.97
2023-02-22T21:21:57.928Z,6.23
2023-02-22T21:24:28.116Z,6.43
2023-02-22T21:26:58.822Z,6.83
2023-02-22T21:29:29.041Z,6.63
2023-02-22T21:31:57.202Z,6.73
2023-02-22T21:34:25.738Z,7.10
2023-02-22T21:36:54.063Z,7.27
2023-02-22T21:39:22.705Z,6.67
2023-02-22T21:41:52.123Z,7.00
2023-02-22T21:44:20.741Z,7.53
2023-02-22T21:46:49.895Z,7.37
2023-02-22T21:49:22.671Z,8.00
2023-02-22T21:51:52.435Z,7.37
2023-02-22T21:54:20.670Z,8.63
2023-02-22T21:56:48.883Z,8.20
2023-02-22T21:59:20.872Z,7.97
2023-02-22T22:01:55.835Z,8.20
2023-02-22T22:04:29.011Z,8.30
2023-02-22T22:07:00.080Z,8.63
2023-02-22T22:09:32.641Z,8.67
2023-02-22T22:12:05.133Z,8.67
2023-02-22T22:14:35.657Z,8.53
2023-02-22T22:17:07.004Z,8.57
2023-02-22T22:19:41.596Z,9.30
2023-02-22T22:22:10.775Z,9.67
2023-02-22T22:24:41.637Z,9.23
2023-02-22T22:27:12.736Z,9.60
2023-02-22T22:29:40.698Z,9.43
2023-02-22T22:32:08.995Z,9.50
2023-02-22T22:34:37.804Z,10.27
2023-02-22T22:37:05.815Z,10.10
2023-02-22T22:39:33.735Z,10.40
2023-02-22T22:42:01.875Z,10.53
2023-02-22T22:44:32.517Z,10.70
2023-02-22T22:47:00.996Z,10.60
2023-02-22T22:49:31.185Z,10.30
2023-02-22T22:51:59.321Z,10.03
2023-02-22T22:54:27.238Z,10.00
2023-02-22T22:56:55.078Z,11.07
2023-02-22T22:59:22.941Z,10.17
2023-02-22T23:01:52.172Z,10.07
2023-02-22T23:04:21.399Z,10.10
2023-02-22T23:06:52.872Z,11.27
2023-02-22T23:09:31.492Z,10.50
2023-02-22T23:12:09.791Z,11.27
2023-02-22T23:14:43.966Z,10.57
2023-02-22T23:17:16.189Z,10.40
2023-02-22T23:19:45.445Z,10.40
2023-02-22T23:22:14.158Z,11.03
2023-02-22T23:24:44.383Z,10.90
2023-02-22T23:27:12.619Z,10.80
2023-02-22T23:29:42.503Z,12.20
2023-02-22T23:32:10.881Z,11.77
2023-02-22T23:34:41.481Z,11.93
2023-02-22T23:37:10.332Z,11.87
2023-02-22T23:39:38.692Z,11.63
2023-02-22T23:42:09.097Z,12.37
2023-02-22T23:44:36.996Z,12.00
2023-02-22T23:47:04.900Z,11.93
2023-02-22T23:49:36.015Z,12.50
2023-02-22T23:52:06.356Z,12.80
2023-02-22T23:54:36.620Z,11.73
2023-02-22T23:57:06.358Z,12.10
2023-02-22T23:59:34.914Z,11.50
